Time;durP1;ratioP1;P1;durP2;ratioP2;P2;SDS_P1;SDS_P2;PMS_P1;PMS_P2;Temp;Humidity;BMP_temperature;BMP_pressure;BME280_temperature;BME280_humidity;BME280_pressure;Samples;Min_cycle;Max_cycle;Signal;HPM_P1;HPM_P2
2022/06/16 00:00:15;;;;;;;4.90;3.05;;;19.10;73.60;;;;;;5031224;28;20121;-73
2022/06/16 00:02:42;;;;;;;4.75;2.97;;;19.10;73.60;;;;;;5029590;28;20103;-73
2022/06/16 00:05:11;;;;;;;4.57;3.10;;;19.00;73.60;;;;;;5031263;28;20045;-72
2022/06/16 00:07:37;;;;;;;3.42;3.13;;;18.90;73.80;;;;;;5029728;28;20025;-72
2022/06/16 00:10:04;;;;;;;4.95;3.17;;;18.90;73.90;;;;;;5029635;28;20450;-72
2022/06/16 00:12:30;;;;;;;6.55;3.28;;;18.80;74.10;;;;;;5029954;28;20025;-72
2022/06/16 00:14:56;;;;;;;3.70;2.88;;;18.80;74.30;;;;;;5029982;28;20054;-72
2022/06/16 00:17:22;;;;;;;4.20;2.97;;;18.80;74.40;;;;;;5030692;28;20064;-72
2022/06/16 00:19:47;;;;;;;4.18;3.05;;;18.70;74.60;;;;;;5028593;28;20029;-72
2022/06/16 00:22:13;;;;;;;4.95;3.08;;;18.70;74.20;;;;;;5030641;28;20402;-72
2022/06/16 00:24:39;;;;;;;4.45;3.22;;;18.70;74.10;;;;;;5030292;28;20452;-71
2022/06/16 00:27:05;;;;;;;4.00;2.70;;;18.70;74.20;;;;;;5030817;28;20080;-71
2022/06/16 00:29:30;;;;;;;5.03;3.15;;;18.60;74.60;;;;;;5030034;28;20036;-73
2022/06/16 00:31:56;;;;;;;3.15;2.53;;;18.60;75.00;;;;;;5029709;28;20025;-72
2022/06/16 00:34:22;;;;;;;4.05;3.03;;;18.60;75.20;;;;;;5029640;28;20030;-71
2022/06/16 00:36:47;;;;;;;3.53;2.90;;;18.50;75.20;;;;;;5027720;28;20467;-71
2022/06/16 00:39:13;;;;;;;3.28;2.90;;;18.50;74.80;;;;;;5030520;28;20026;-71
2022/06/16 00:41:39;;;;;;;4.05;2.90;;;18.50;74.90;;;;;;5029129;28;20022;-72
2022/06/16 00:44:36;;;;;;;4.15;3.22;;;18.50;75.20;;;;;;5028363;28;20113;-73
2022/06/16 00:47:02;;;;;;;3.55;2.65;;;18.50;75.20;;;;;;5021783;28;20037;-73
2022/06/16 00:49:28;;;;;;;3.47;3.00;;;18.50;75.10;;;;;;5033733;28;20036;-72
2022/06/16 00:51:59;;;;;;;2.67;2.47;;;18.50;76.00;;;;;;5033717;28;20029;-72
2022/06/16 00:54:29;;;;;;;4.25;2.88;;;18.50;76.70;;;;;;5032798;28;20453;-73
2022/06/16 00:57:01;;;;;;;4.50;3.10;;;18.50;77.30;;;;;;5033365;28;20091;-73
2022/06/16 00:59:27;;;;;;;4.43;2.83;;;18.40;78.20;;;;;;5034313;28;20049;-73
2022/06/16 01:01:52;;;;;;;3.95;3.38;;;18.40;80.20;;;;;;5033568;28;20466;-72
2022/06/16 01:07:06;;;;;;;3.63;2.75;;;18.30;78.80;;;;;;5034018;28;20035;-73
2022/06/16 01:09:33;;;;;;;4.18;3.17;;;18.30;79.40;;;;;;5033943;28;20486;-74
2022/06/16 01:15:10;;;;;;;4.28;3.10;;;18.20;81.30;;;;;;5032798;28;20069;-74
2022/06/16 01:18:13;;;;;;;3.80;3.30;;;18.10;78.30;;;;;;5033653;28;20167;-73
2022/06/16 01:21:11;;;;;;;3.85;2.90;;;18.00;77.50;;;;;;5036424;28;20029;-73
2022/06/16 01:23:55;;;;;;;4.05;3.00;;;18.00;78.00;;;;;;5020481;28;20061;-73
2022/06/16 01:26:37;;;;;;;4.03;3.33;;;18.00;78.70;;;;;;5033976;28;20029;-73
2022/06/16 01:29:24;;;;;;;4.93;3.30;;;18.00;78.90;;;;;;5032319;28;20113;-73
2022/06/16 01:32:16;;;;;;;4.72;3.45;;;18.00;79.20;;;;;;5027465;28;20026;-73
2022/06/16 01:35:14;;;;;;;4.50;3.58;;;17.90;79.60;;;;;;5032377;28;20372;-73
2022/06/16 01:37:46;;;;;;;3.83;3.42;;;;;;;;;;5028847;28;20465;-73
2022/06/16 01:40:19;;;;;;;3.45;3.10;;;;;;;;;;5033131;28;20454;-72
2022/06/16 01:43:15;;;;;;;4.43;3.30;;;;;;;;;;5032377;28;20360;-72
2022/06/16 01:45:48;;;;;;;4.38;3.03;;;;;;;;;;5026390;28;20045;-72
2022/06/16 01:48:17;;;;;;;3.88;3.15;;;;;;;;;;5032838;28;20034;-73
2022/06/16 01:51:03;;;;;;;4.80;2.85;;;;;;;;;;5031803;28;20025;-72
2022/06/16 01:53:38;;;;;;;4.72;3.05;;;;;;;;;;5032580;28;20407;-72
2022/06/16 01:56:24;;;;;;;4.13;3.35;;;17.60;99.90;;;;;;5031754;28;20080;-72
2022/06/16 01:58:58;;;;;;;4.90;3.38;;;17.70;84.80;;;;;;5018321;28;20068;-71
2022/06/16 02:01:29;;;;;;;4.80;3.20;;;17.50;82.70;;;;;;5032122;28;20100;-71
2022/06/16 02:04:07;;;;;;;2.85;2.50;;;17.50;82.70;;;;;;5029787;28;20374;-72
2022/06/16 02:06:41;;;;;;;6.53;2.83;;;17.50;82.70;;;;;;5032782;28;20029;-71
2022/06/16 02:09:12;;;;;;;5.05;2.85;;;17.40;82.80;;;;;;5032167;28;20025;-72
2022/06/16 02:11:41;;;;;;;3.17;2.88;;;17.40;82.60;;;;;;5032180;28;20483;-72
2022/06/16 02:14:14;;;;;;;3.17;2.63;;;17.40;82.40;;;;;;5031716;28;20491;-72
2022/06/16 02:16:41;;;;;;;4.70;3.00;;;17.40;83.20;;;;;;5031985;28;20046;-72
2022/06/16 02:19:13;;;;;;;5.35;3.47;;;17.30;83.60;;;;;;5032733;28;20029;-72
2022/06/16 02:21:50;;;;;;;3.65;3.00;;;17.30;84.10;;;;;;5028049;28;20065;-72
2022/06/16 02:24:19;;;;;;;6.15;2.88;;;17.30;84.30;;;;;;5032939;28;20634;-71
2022/06/16 02:26:45;;;;;;;3.13;2.83;;;17.30;84.40;;;;;;5031788;28;20530;-71
2022/06/16 02:29:37;;;;;;;4.68;2.88;;;17.30;84.20;;;;;;5032591;28;20057;-71
2022/06/16 02:32:37;;;;;;;3.28;2.47;;;17.30;84.70;;;;;;5024314;28;20033;-71
2022/06/16 02:35:21;;;;;;;;;;;17.30;85.10;;;;;;5032050;28;20053;-72
2022/06/16 02:38:07;;;;;;;6.22;2.53;;;17.20;85.80;;;;;;5029959;28;19924;-72
2022/06/16 02:40:52;;;;;;;3.78;2.67;;;17.20;86.50;;;;;;5031847;28;20025;-72
2022/06/16 02:43:18;;;;;;;2.95;2.58;;;17.10;86.80;;;;;;5025753;28;20042;-71
2022/06/16 02:46:02;;;;;;;4.18;2.30;;;17.10;87.20;;;;;;5031353;28;20111;-71
2022/06/16 02:48:38;;;;;;;3.58;2.53;;;17.10;87.80;;;;;;5032065;28;20025;-72
2022/06/16 02:51:10;;;;;;;4.20;2.70;;;17.00;88.90;;;;;;5031034;28;20064;-72
2022/06/16 02:56:47;;;;;;;3.25;2.72;;;16.90;90.10;;;;;;5033119;28;20132;-71
2022/06/16 02:59:20;;;;;;;4.20;2.83;;;16.90;90.60;;;;;;5032251;28;20107;-72
2022/06/16 03:01:48;;;;;;;4.50;3.00;;;16.90;90.90;;;;;;5030744;28;20056;-71
2022/06/16 03:04:17;;;;;;;3.40;2.78;;;16.90;91.10;;;;;;5032227;28;20057;-71
2022/06/16 03:06:43;;;;;;;5.55;2.88;;;16.90;91.40;;;;;;5031100;28;20042;-71
2022/06/16 03:09:09;;;;;;;3.83;2.80;;;16.80;91.50;;;;;;5031293;28;20022;-71
2022/06/16 03:11:36;;;;;;;5.32;2.80;;;16.80;91.70;;;;;;5035528;28;20113;-71
2022/06/16 03:14:02;;;;;;;4.03;2.67;;;16.80;92.10;;;;;;5030513;28;20739;-71
2022/06/16 03:16:28;;;;;;;5.20;3.13;;;16.80;92.60;;;;;;5031815;28;20038;-71
2022/06/16 03:18:54;;;;;;;4.40;3.10;;;16.80;92.70;;;;;;5030716;28;20422;-72
2022/06/16 03:21:20;;;;;;;4.72;2.90;;;16.80;92.90;;;;;;5034224;28;20031;-71
2022/06/16 03:23:46;;;;;;;3.00;2.70;;;16.80;93.20;;;;;;5036021;28;20033;-72
2022/06/16 03:26:12;;;;;;;6.53;3.28;;;16.80;93.60;;;;;;5031416;28;20104;-71
2022/06/16 03:28:37;;;;;;;4.07;2.90;;;16.80;93.80;;;;;;5030997;28;20034;-71
2022/06/16 03:31:03;;;;;;;3.42;3.03;;;16.70;94.10;;;;;;5028898;28;20025;-71
2022/06/16 03:33:29;;;;;;;5.32;2.92;;;16.70;94.80;;;;;;5030631;28;20056;-71
2022/06/16 03:35:55;;;;;;;4.05;2.70;;;16.70;95.00;;;;;;5034022;28;20025;-71
2022/06/16 03:40:46;;;;;;;7.22;3.33;;;16.70;95.60;;;;;;5036520;28;20087;-72
2022/06/16 03:43:12;;;;;;;5.28;3.45;;;16.70;96.10;;;;;;5040790;28;20062;-71
2022/06/16 03:45:38;;;;;;;7.07;3.42;;;16.70;96.40;;;;;;5039976;28;20509;-71
2022/06/16 03:48:05;;;;;;;6.32;3.55;;;16.80;97.00;;;;;;5030181;28;20164;-71
2022/06/16 03:50:30;;;;;;;4.15;3.17;;;16.80;97.40;;;;;;5041057;28;20029;-71
2022/06/16 03:52:56;;;;;;;6.32;3.20;;;16.80;97.70;;;;;;5034403;28;20391;-72
2022/06/16 03:55:22;;;;;;;5.15;3.72;;;16.90;97.90;;;;;;5033468;28;20033;-72
2022/06/16 03:57:48;;;;;;;5.10;3.45;;;16.90;98.10;;;;;;5030604;28;20394;-71
2022/06/16 04:00:15;;;;;;;4.88;3.28;;;16.90;98.10;;;;;;5031051;28;20033;-71
2022/06/16 04:02:40;;;;;;;3.80;2.80;;;17.00;98.40;;;;;;5035987;28;20479;-71
2022/06/16 04:05:08;;;;;;;4.13;3.08;;;17.00;99.00;;;;;;5031990;28;20049;-72
2022/06/16 04:07:35;;;;;;;4.55;3.42;;;17.10;99.20;;;;;;5039601;28;20048;-72
2022/06/16 04:10:05;;;;;;;3.83;3.42;;;17.20;99.10;;;;;;5033097;28;20037;-72
2022/06/16 04:12:31;;;;;;;6.68;3.78;;;17.30;99.10;;;;;;5033269;28;20036;-71
2022/06/16 04:14:56;;;;;;;4.22;3.70;;;17.50;99.10;;;;;;5033558;28;20088;-71
2022/06/16 04:17:23;;;;;;;5.10;3.55;;;17.60;99.00;;;;;;5042866;28;20073;-71
2022/06/16 04:22:33;;;;;;;4.97;3.50;;;17.80;98.20;;;;;;5034551;28;20036;-71
2022/06/16 04:24:59;;;;;;;6.63;3.53;;;18.00;97.60;;;;;;5044859;28;20033;-71
2022/06/16 04:27:25;;;;;;;4.88;3.15;;;18.00;97.70;;;;;;5042480;28;20030;-72
2022/06/16 04:29:51;;;;;;;3.65;3.33;;;18.00;97.50;;;;;;5034705;28;20036;-71
2022/06/16 04:32:17;;;;;;;4.30;3.25;;;18.20;97.30;;;;;;5047258;28;20043;-72
2022/06/16 04:34:44;;;;;;;4.32;3.60;;;18.20;96.80;;;;;;5043445;28;20033;-72
2022/06/16 04:37:10;;;;;;;4.63;3.95;;;18.30;97.10;;;;;;5037549;28;20030;-71
2022/06/16 04:39:36;;;;;;;4.75;3.97;;;18.40;97.00;;;;;;5037330;28;20436;-71
2022/06/16 04:42:02;;;;;;;6.35;4.05;;;18.40;97.60;;;;;;5036359;28;20141;-72
2022/06/16 04:44:28;;;;;;;5.65;3.53;;;18.50;97.20;;;;;;5035183;28;20087;-71
2022/06/16 04:46:53;;;;;;;6.15;3.58;;;18.50;97.30;;;;;;5044004;28;20143;-72
2022/06/16 04:49:19;;;;;;;4.78;3.45;;;18.60;97.20;;;;;;5043612;28;20152;-72
2022/06/16 04:51:44;;;;;;;5.75;3.80;;;18.60;97.10;;;;;;5035758;28;20033;-72
2022/06/16 04:54:11;;;;;;;6.25;3.60;;;18.80;96.60;;;;;;5033833;28;20459;-72
2022/06/16 04:56:36;;;;;;;5.07;4.15;;;18.80;96.80;;;;;;5043081;28;20034;-71
2022/06/16 04:59:02;;;;;;;5.13;4.10;;;18.90;96.40;;;;;;5039217;28;20025;-71
2022/06/16 05:01:28;;;;;;;4.95;3.65;;;18.90;96.30;;;;;;5039791;28;20107;-71
2022/06/16 05:03:54;;;;;;;5.00;3.88;;;19.00;96.60;;;;;;5050307;28;20084;-71
2022/06/16 05:06:19;;;;;;;5.72;3.70;;;19.00;96.40;;;;;;5037957;28;20392;-72
2022/06/16 05:08:45;;;;;;;5.65;4.40;;;19.10;96.40;;;;;;5034973;28;20044;-72
2022/06/16 05:11:10;;;;;;;4.97;4.30;;;19.10;96.60;;;;;;5034934;28;20049;-72
2022/06/16 05:13:36;;;;;;;6.25;4.10;;;19.20;97.90;;;;;;5032892;28;20041;-71
2022/06/16 05:16:02;;;;;;;5.57;3.97;;;19.20;98.20;;;;;;5048025;28;20042;-72
2022/06/16 05:18:28;;;;;;;7.85;4.22;;;19.10;98.40;;;;;;5033870;28;20029;-72
2022/06/16 05:21:03;;;;;;;7.57;4.32;;;19.10;98.30;;;;;;5036523;28;20026;-72
2022/06/16 05:23:29;;;;;;;7.47;4.60;;;19.20;98.00;;;;;;5026561;28;20397;-72
2022/06/16 05:25:55;;;;;;;6.05;4.07;;;19.20;97.80;;;;;;5039142;28;20021;-70
2022/06/16 05:28:20;;;;;;;6.00;4.13;;;19.20;97.70;;;;;;5039207;28;20128;-72
2022/06/16 05:30:46;;;;;;;6.97;3.97;;;19.30;97.80;;;;;;5032971;28;20117;-74
2022/06/16 05:33:12;;;;;;;5.85;4.68;;;19.40;97.60;;;;;;5032637;28;20108;-74
2022/06/16 05:35:38;;;;;;;7.13;4.40;;;19.60;97.10;;;;;;5043637;28;20025;-74
2022/06/16 05:38:03;;;;;;;7.30;4.45;;;19.70;96.80;;;;;;5040571;28;20486;-74
2022/06/16 05:40:29;;;;;;;5.70;4.20;;;19.80;96.60;;;;;;5033096;28;20021;-74
2022/06/16 05:42:55;;;;;;;6.10;4.07;;;20.00;96.60;;;;;;5032418;28;20037;-75
2022/06/16 05:45:20;;;;;;;5.07;3.83;;;20.10;96.20;;;;;;5034468;28;20053;-74
2022/06/16 05:47:47;;;;;;;6.50;3.88;;;20.20;95.80;;;;;;5039568;28;20033;-75
2022/06/16 05:50:15;;;;;;;4.40;3.83;;;20.30;95.70;;;;;;5032410;28;20037;-75
2022/06/16 05:52:41;;;;;;;5.97;3.80;;;20.50;95.20;;;;;;5032878;28;20032;-73
2022/06/16 05:55:13;;;;;;;4.82;3.53;;;20.50;94.80;;;;;;5032405;28;20022;-74
2022/06/16 05:57:39;;;;;;;4.95;3.90;;;20.60;94.90;;;;;;5029423;28;20037;-74
2022/06/16 06:00:06;;;;;;;4.68;3.97;;;20.80;94.90;;;;;;5031787;28;20032;-74
2022/06/16 06:02:32;;;;;;;5.07;3.90;;;20.90;94.20;;;;;;5031592;28;20104;-74
2022/06/16 06:04:58;;;;;;;7.32;3.92;;;21.00;93.90;;;;;;5029060;28;20113;-74
2022/06/16 06:07:23;;;;;;;5.20;3.97;;;21.10;93.60;;;;;;5028607;28;20033;-74
2022/06/16 06:18:28;;;;;;;4.03;3.58;;;21.20;93.00;;;;;;5009781;28;20037;-74
2022/06/16 06:20:53;;;;;;;7.72;3.72;;;21.30;92.80;;;;;;5009549;28;20034;-74
2022/06/16 06:23:19;;;;;;;6.60;3.42;;;21.40;92.40;;;;;;5010052;28;20053;-74
2022/06/16 06:25:45;;;;;;;6.50;3.30;;;21.60;92.00;;;;;;5010497;28;20030;-74
2022/06/16 06:28:18;;;;;;;3.85;3.38;;;21.70;91.90;;;;;;5008390;28;20888;-73
2022/06/16 06:30:43;;;;;;;7.32;3.80;;;21.90;91.80;;;;;;5009556;28;20173;-74
2022/06/16 06:33:09;;;;;;;4.40;3.80;;;22.10;91.00;;;;;;5009552;28;20658;-74
2022/06/16 06:35:34;;;;;;;6.60;3.60;;;22.20;91.00;;;;;;5011616;28;20038;-74
2022/06/16 06:38:00;;;;;;;6.30;3.92;;;22.30;89.70;;;;;;5008971;28;20038;-74
2022/06/16 06:40:32;;;;;;;4.47;3.17;;;22.50;88.30;;;;;;5009091;28;20026;-74
2022/06/16 06:42:58;;;;;;;6.35;3.45;;;22.70;88.40;;;;;;5012512;28;20153;-74
2022/06/16 06:45:24;;;;;;;6.72;3.70;;;22.90;87.30;;;;;;5010496;28;20056;-75
2022/06/16 06:47:51;;;;;;;4.78;3.28;;;23.10;85.30;;;;;;5012052;28;20135;-75
2022/06/16 06:50:46;;;;;;;3.92;3.10;;;23.30;84.70;;;;;;5030096;28;20523;-75
2022/06/16 06:53:11;;;;;;;6.38;3.45;;;23.50;83.00;;;;;;5018661;28;20044;-75
2022/06/16 06:55:41;;;;;;;5.70;3.58;;;23.60;82.30;;;;;;5033559;28;20029;-75
2022/06/16 06:58:08;;;;;;;5.03;3.85;;;23.70;82.70;;;;;;5034262;28;20033;-75
2022/06/16 07:00:34;;;;;;;7.70;3.85;;;24.00;80.10;;;;;;5035076;28;20040;-75
2022/06/16 07:02:59;;;;;;;6.38;3.78;;;24.20;79.50;;;;;;5034625;28;20025;-74
2022/06/16 07:05:25;;;;;;;4.57;3.45;;;24.30;80.20;;;;;;5031182;28;20022;-74
2022/06/16 07:07:56;;;;;;;5.88;3.80;;;24.30;80.30;;;;;;5030712;28;20030;-75
2022/06/16 07:10:22;;;;;;;3.90;3.53;;;24.20;80.70;;;;;;5031048;28;20133;-74
2022/06/16 07:12:47;;;;;;;6.35;4.25;;;24.10;81.60;;;;;;5030720;28;20482;-74
2022/06/16 07:15:13;;;;;;;6.78;3.58;;;24.00;80.10;;;;;;5041828;28;20040;-74
2022/06/16 07:17:39;;;;;;;5.28;3.80;;;24.00;80.70;;;;;;5043372;28;20124;-74
2022/06/16 07:20:06;;;;;;;5.88;3.85;;;24.10;80.70;;;;;;5036197;28;20025;-74
2022/06/16 07:22:31;;;;;;;8.52;4.00;;;24.20;80.50;;;;;;5032163;28;20052;-74
2022/06/16 07:24:57;;;;;;;10.73;4.18;;;24.40;78.90;;;;;;5031393;28;20034;-74
2022/06/16 07:27:22;;;;;;;6.13;3.25;;;24.50;77.30;;;;;;5032996;28;20068;-74
2022/06/16 07:29:49;;;;;;;6.18;4.05;;;24.60;78.40;;;;;;5031059;28;20036;-75
2022/06/16 07:32:17;;;;;;;6.70;3.38;;;24.80;76.60;;;;;;5030671;28;20034;-77
2022/06/16 07:34:42;;;;;;;3.97;3.58;;;24.80;76.30;;;;;;5021942;28;20438;-78
2022/06/16 07:37:09;;;;;;;5.18;3.92;;;24.80;77.10;;;;;;5029524;28;20078;-73
2022/06/16 07:39:34;;;;;;;9.63;3.95;;;24.80;75.90;;;;;;5029287;28;20055;-76
2022/06/16 07:42:00;;;;;;;5.75;3.72;;;24.80;75.90;;;;;;5035202;28;20061;-74
2022/06/16 07:44:25;;;;;;;5.07;3.50;;;24.70;75.50;;;;;;5024269;28;20116;-79
2022/06/16 07:46:51;;;;;;;6.22;3.25;;;24.70;75.10;;;;;;5029475;28;20038;-76
2022/06/16 07:49:22;;;;;;;7.65;4.13;;;24.80;75.70;;;;;;5021274;28;20446;-73
2022/06/16 07:51:49;;;;;;;5.03;3.50;;;24.70;75.00;;;;;;5016711;28;20068;-75
2022/06/16 07:54:17;;;;;;;6.20;4.10;;;24.70;75.70;;;;;;5029350;28;20040;-73
2022/06/16 07:56:44;;;;;;;4.78;3.97;;;24.70;75.50;;;;;;5033065;28;20045;-74
2022/06/16 07:59:10;;;;;;;6.40;4.13;;;24.80;76.10;;;;;;5028411;28;21459;-74
2022/06/16 08:01:36;;;;;;;5.25;3.35;;;24.90;75.60;;;;;;5034286;28;20608;-74
2022/06/16 08:04:05;;;;;;;5.90;4.22;;;25.00;75.60;;;;;;5032802;28;20048;-75
2022/06/16 08:06:33;;;;;;;6.10;4.13;;;25.10;75.80;;;;;;5032418;28;20040;-72
2022/06/16 08:08:58;;;;;;;4.60;3.78;;;25.20;76.00;;;;;;5032540;28;20155;-72
2022/06/16 08:14:08;;;;;;;5.10;3.35;;;25.50;76.40;;;;;;5029400;28;20055;-74
2022/06/16 08:16:35;;;;;;;4.93;4.00;;;25.60;75.60;;;;;;5033272;28;20030;-73
2022/06/16 08:19:01;;;;;;;6.65;3.75;;;25.80;75.30;;;;;;5031912;28;20410;-73
2022/06/16 08:21:27;;;;;;;8.73;3.92;;;26.00;75.10;;;;;;5024935;28;20025;-75
2022/06/16 08:23:53;;;;;;;4.85;4.00;;;26.20;93.80;;;;;;5030866;28;20034;-74
2022/06/16 08:26:20;;;;;;;6.95;3.60;;;26.40;92.90;;;;;;5028558;28;20029;-74
2022/06/16 08:28:47;;;;;;;9.65;3.97;;;26.50;87.20;;;;;;5033353;28;20029;-73
2022/06/16 08:31:12;;;;;;;6.50;3.67;;;26.60;87.40;;;;;;5030565;28;20301;-73
2022/06/16 08:33:39;;;;;;;9.82;4.00;;;26.70;87.30;;;;;;5032054;28;20576;-74
2022/06/16 08:36:05;;;;;;;6.68;3.85;;;26.90;86.40;;;;;;5027275;28;20030;-74
2022/06/16 08:38:31;;;;;;;6.78;3.22;;;26.90;86.10;;;;;;5031361;28;20052;-72
2022/06/16 08:41:15;;;;;;;6.03;3.45;;;27.00;81.30;;;;;;5029770;28;20047;-73
2022/06/16 08:44:22;;;;;;;5.43;3.90;;;27.00;75.50;;;;;;5022221;28;20025;-72
2022/06/16 08:47:20;;;;;;;5.03;3.33;;;27.20;69.80;;;;;;5032934;28;20523;-75
2022/06/16 08:50:29;;;;;;;9.45;3.65;;;27.30;68.60;;;;;;5031286;28;20042;-74
2022/06/16 08:53:08;;;;;;;6.63;3.90;;;27.00;67.70;;;;;;5026123;28;20041;-72
2022/06/16 08:55:45;;;;;;;4.45;2.95;;;26.70;67.10;;;;;;5030023;28;20072;-75
2022/06/16 08:58:42;;;;;;;4.78;3.47;;;26.60;66.20;;;;;;5031563;28;20029;-72
2022/06/16 09:01:23;;;;;;;7.72;3.38;;;26.50;65.80;;;;;;5030249;28;20762;-72
2022/06/16 09:03:56;;;;;;;6.53;3.58;;;26.60;66.40;;;;;;5032521;28;20356;-72
2022/06/16 09:06:48;;;;;;;4.90;3.63;;;26.70;66.60;;;;;;5029832;28;20083;-71
2022/06/16 09:12:47;;;;;;;5.53;2.90;;;27.00;65.50;;;;;;5032427;28;20125;-70
2022/06/16 09:15:34;;;;;;;5.13;2.85;;;27.20;65.60;;;;;;5017966;28;20621;-72
2022/06/16 09:18:03;;;;;;;6.03;3.08;;;27.40;65.40;;;;;;5031132;28;20544;-72
2022/06/16 09:20:43;;;;;;;6.00;2.78;;;27.60;65.20;;;;;;5032595;28;20021;-72
2022/06/16 09:23:34;;;;;;;5.68;3.22;;;27.70;64.00;;;;;;5026648;28;20029;-71
2022/06/16 09:26:27;;;;;;;4.53;3.47;;;27.80;64.50;;;;;;5022345;28;20036;-73
2022/06/16 09:29:09;;;;;;;5.05;3.20;;;27.90;65.30;;;;;;5031684;28;20053;-71
2022/06/16 09:31:40;;;;;;;6.70;3.47;;;27.90;65.30;;;;;;5031537;28;20463;-73
2022/06/16 09:34:16;;;;;;;4.25;3.53;;;28.00;65.80;;;;;;5031623;28;20390;-72
2022/06/16 09:36:48;;;;;;;6.38;3.83;;;28.10;66.70;;;;;;5030115;28;20475;-73
2022/06/16 09:39:35;;;;;;;4.00;3.10;;;28.20;66.60;;;;;;5028989;28;20029;-73
2022/06/16 09:42:33;;;;;;;4.75;3.50;;;28.30;66.20;;;;;;5019787;28;20018;-71
2022/06/16 09:45:11;;;;;;;4.50;3.55;;;28.30;65.70;;;;;;5025943;28;20117;-73
2022/06/16 09:48:05;;;;;;;4.13;3.13;;;28.40;65.90;;;;;;5028712;28;20042;-71
2022/06/16 09:50:44;;;;;;;7.05;3.95;;;28.50;64.80;;;;;;5030784;28;20037;-71
2022/06/16 09:53:32;;;;;;;3.95;3.15;;;28.50;64.90;;;;;;5029866;28;20796;-72
2022/06/16 09:56:21;;;;;;;6.00;3.60;;;28.50;65.00;;;;;;5031497;28;20125;-72
2022/06/16 09:59:21;;;;;;;9.45;3.67;;;28.40;64.70;;;;;;5026833;28;20498;-72
2022/06/16 10:01:58;;;;;;;10.18;3.78;;;28.10;65.80;;;;;;5023182;28;20041;-72
2022/06/16 10:04:23;;;;;;;5.55;3.38;;;28.00;66.70;;;;;;5027225;28;20037;-72
2022/06/16 10:07:22;;;;;;;8.48;3.65;;;27.90;66.40;;;;;;5031550;28;20033;-72
2022/06/16 10:10:12;;;;;;;6.90;3.47;;;27.90;66.20;;;;;;5031439;28;20180;-71
2022/06/16 10:13:14;;;;;;;6.30;3.78;;;27.90;66.10;;;;;;5026028;28;20467;-71
2022/06/16 10:16:00;;;;;;;5.40;3.20;;;27.60;65.60;;;;;;5014168;28;20471;-72
2022/06/16 10:18:26;;;;;;;8.15;4.13;;;27.50;66.50;;;;;;5023356;28;20115;-72
2022/06/16 10:20:52;;;;;;;8.07;3.47;;;27.40;67.00;;;;;;5031264;28;20063;-71
2022/06/16 10:23:43;;;;;;;5.55;3.90;;;27.40;66.60;;;;;;5019715;28;20116;-73
2022/06/16 10:26:09;;;;;;;5.80;3.30;;;27.40;67.20;;;;;;5032792;28;20486;-72
2022/06/16 10:28:48;;;;;;;7.03;3.70;;;27.50;67.50;;;;;;5032256;28;20042;-71
2022/06/16 10:31:34;;;;;;;7.32;3.25;;;27.60;67.60;;;;;;5024544;28;20109;-72
2022/06/16 10:34:01;;;;;;;6.47;3.28;;;27.70;67.20;;;;;;5025230;28;20034;-73
2022/06/16 10:36:28;;;;;;;5.47;3.45;;;27.80;67.60;;;;;;5028807;28;20040;-72
2022/06/16 10:39:19;;;;;;;7.60;3.58;;;27.80;66.80;;;;;;5030184;28;20029;-72
2022/06/16 10:41:59;;;;;;;6.60;3.13;;;28.00;66.00;;;;;;5022414;28;20039;-75
2022/06/16 10:44:27;;;;;;;5.53;2.95;;;28.10;65.80;;;;;;5023802;28;20068;-72
2022/06/16 10:46:58;;;;;;;5.28;2.97;;;28.30;65.80;;;;;;5029417;28;20175;-72
2022/06/16 10:49:38;;;;;;;3.75;2.58;;;28.30;66.10;;;;;;5023243;28;20026;-73
2022/06/16 10:52:11;;;;;;;9.20;3.40;;;28.40;66.10;;;;;;5025088;28;20415;-73
2022/06/16 10:54:44;;;;;;;7.88;2.80;;;28.50;64.70;;;;;;5027125;28;20132;-74
2022/06/16 10:57:22;;;;;;;4.43;2.90;;;28.40;64.80;;;;;;5029711;28;20033;-78
2022/06/16 11:00:10;;;;;;;7.07;3.10;;;28.50;65.20;;;;;;5029404;28;20037;-72
2022/06/16 11:02:36;;;;;;;4.50;2.58;;;28.50;65.30;;;;;;5030372;28;20025;-73
2022/06/16 11:05:12;;;;;;;4.63;3.08;;;28.50;66.10;;;;;;5030070;28;20406;-75
2022/06/16 11:07:41;;;;;;;5.93;2.97;;;28.80;65.00;;;;;;5028926;28;20037;-73
2022/06/16 11:10:16;;;;;;;6.30;4.10;;;29.00;64.50;;;;;;5030368;28;20029;-73
2022/06/16 11:12:46;;;;;;;6.45;3.47;;;29.00;63.70;;;;;;5029723;28;20339;-73
2022/06/16 11:15:41;;;;;;;4.38;3.13;;;28.90;64.10;;;;;;5029767;28;20104;-74
2022/06/16 11:18:12;;;;;;;4.82;2.88;;;28.80;64.10;;;;;;5019093;28;20135;-75
2022/06/16 11:20:40;;;;;;;3.50;2.90;;;28.90;64.10;;;;;;5030245;28;20420;-73
2022/06/16 11:23:21;;;;;;;5.43;3.10;;;29.00;63.70;;;;;;5027158;28;20108;-72
2022/06/16 11:25:53;;;;;;;6.35;3.05;;;29.00;64.10;;;;;;5030258;28;20025;-75
2022/06/16 11:28:24;;;;;;;9.63;3.28;;;29.10;64.20;;;;;;5038760;28;20053;-75
2022/06/16 11:30:49;;;;;;;6.45;3.55;;;29.10;63.60;;;;;;5029739;28;20124;-76
2022/06/16 11:36:34;;;;;;;5.45;3.10;;;28.90;63.30;;;;;;5025091;28;20044;-71
2022/06/16 11:39:04;;;;;;;6.35;3.00;;;28.90;62.90;;;;;;5027830;28;20029;-74
2022/06/16 11:41:32;;;;;;;6.50;3.00;;;28.90;63.50;;;;;;5026203;28;20029;-76
2022/06/16 11:44:09;;;;;;;5.88;3.30;;;29.00;63.30;;;;;;5028374;28;20068;-73
2022/06/16 11:46:56;;;;;;;6.03;3.03;;;29.20;62.40;;;;;;5026190;28;20425;-76
2022/06/16 11:50:06;;;;;;;4.70;2.83;;;29.30;62.30;;;;;;5025913;28;20242;-76
2022/06/16 11:52:38;;;;;;;;;;;29.40;61.60;;;;;;5004043;28;20507;-72
2022/06/16 11:55:36;;;;;;;5.75;3.25;;;29.50;61.60;;;;;;5026641;28;19971;-72
2022/06/16 11:58:29;;;;;;;5.07;2.67;;;29.50;61.00;;;;;;5026658;28;20034;-74
2022/06/16 12:01:10;;;;;;;4.68;3.00;;;29.60;61.40;;;;;;5023955;28;20029;-72
2022/06/16 12:04:01;;;;;;;9.98;2.88;;;29.80;61.50;;;;;;5028702;28;20496;-76
2022/06/16 12:07:03;;;;;;;5.75;3.03;;;29.90;59.40;;;;;;5019664;28;20037;-77
2022/06/16 12:09:58;;;;;;;5.80;2.80;;;29.80;59.50;;;;;;5015646;28;20049;-76
2022/06/16 12:12:42;;;;;;;3.38;2.75;;;29.80;59.20;;;;;;5023259;28;20034;-73
2022/06/16 12:15:26;;;;;;;7.15;2.85;;;30.00;59.50;;;;;;5020980;28;20038;-75
2022/06/16 12:18:10;;;;;;;7.55;3.30;;;29.90;57.70;;;;;;5029646;28;20057;-74
2022/06/16 12:21:04;;;;;;;4.07;2.38;;;30.00;57.50;;;;;;5022191;28;20376;-74
2022/06/16 12:23:59;;;;;;;5.07;2.85;;;30.10;57.80;;;;;;5025996;28;20095;-76
2022/06/16 12:26:30;;;;;;;3.92;2.40;;;29.90;58.20;;;;;;5027861;28;20119;-73
2022/06/16 12:29:26;;;;;;;7.75;3.00;;;29.90;58.80;;;;;;5029055;28;20028;-73
2022/06/16 12:32:19;;;;;;;4.57;3.10;;;30.10;57.80;;;;;;5015519;28;20549;-73
2022/06/16 12:35:25;;;;;;;5.60;2.70;;;30.10;58.10;;;;;;5022494;28;20383;-74
2022/06/16 12:37:56;;;;;;;6.07;3.00;;;30.00;58.60;;;;;;5018051;28;20821;-74
2022/06/16 12:40:30;;;;;;;5.45;2.65;;;30.10;57.80;;;;;;5027963;28;20030;-75
2022/06/16 12:43:03;;;;;;;8.82;3.45;;;29.80;56.60;;;;;;5030970;28;20111;-75
2022/06/16 12:45:43;;;;;;;6.28;2.63;;;29.50;57.40;;;;;;5020744;28;20503;-74
2022/06/16 12:48:23;;;;;;;6.53;2.75;;;29.60;58.30;;;;;;5032354;28;20038;-73
2022/06/16 12:50:55;;;;;;;4.20;2.35;;;29.50;57.60;;;;;;5031327;28;20039;-75
2022/06/16 12:53:35;;;;;;;5.88;3.10;;;29.50;58.60;;;;;;5034885;28;20064;-74
2022/06/16 12:56:12;;;;;;;3.67;2.97;;;29.80;58.00;;;;;;5041154;28;20029;-74
2022/06/16 12:58:49;;;;;;;4.45;2.70;;;30.00;57.60;;;;;;5020666;28;20026;-74
2022/06/16 13:01:15;;;;;;;8.93;2.60;;;30.20;57.00;;;;;;5032387;28;20068;-74
2022/06/16 13:04:04;;;;;;;8.82;3.63;;;30.20;55.70;;;;;;5032732;28;20034;-76
2022/06/16 13:06:31;;;;;;;6.97;2.70;;;30.20;56.40;;;;;;5032753;28;20029;-75
2022/06/16 13:09:00;;;;;;;6.72;3.22;;;30.40;56.50;;;;;;5029301;28;20107;-73
2022/06/16 13:11:33;;;;;;;4.78;3.45;;;30.40;56.30;;;;;;5032152;28;20167;-74
2022/06/16 13:14:13;;;;;;;3.85;2.60;;;30.40;56.50;;;;;;5031127;28;20410;-75
2022/06/16 13:16:43;;;;;;;3.20;2.40;;;30.60;56.60;;;;;;5031947;28;20034;-72
2022/06/16 13:19:17;;;;;;;5.88;3.10;;;30.80;56.20;;;;;;5031718;28;20018;-72
2022/06/16 13:21:49;;;;;;;7.07;2.47;;;31.10;54.90;;;;;;5020274;28;20041;-73
2022/06/16 13:24:23;;;;;;;5.45;2.50;;;31.30;54.20;;;;;;5029657;28;20655;-71
2022/06/16 13:27:07;;;;;;;4.05;2.28;;;31.30;51.90;;;;;;5040457;28;20029;-72
2022/06/16 13:29:42;;;;;;;4.65;2.65;;;31.00;52.60;;;;;;5025796;28;20025;-74
2022/06/16 13:32:42;;;;;;;6.53;2.58;;;31.10;52.10;;;;;;5029399;28;20026;-74
2022/06/16 13:35:13;;;;;;;7.70;2.50;;;31.20;51.30;;;;;;5026507;28;20427;-70
2022/06/16 13:37:49;;;;;;;4.82;2.40;;;31.00;51.20;;;;;;5032305;28;20033;-72
2022/06/16 13:40:25;;;;;;;4.65;2.30;;;31.10;50.90;;;;;;5026279;28;20022;-76
2022/06/16 13:42:51;;;;;;;3.22;2.50;;;31.10;50.70;;;;;;5033477;28;20045;-73
2022/06/16 13:45:22;;;;;;;3.67;2.40;;;31.20;51.00;;;;;;5031570;28;20463;-72
2022/06/16 13:48:11;;;;;;;3.13;2.15;;;31.30;50.60;;;;;;5032177;28;20060;-73
2022/06/16 13:50:48;;;;;;;6.85;2.53;;;31.10;49.60;;;;;;5022296;28;20029;-73
2022/06/16 13:53:18;;;;;;;5.05;2.20;;;31.20;49.30;;;;;;5030149;28;20021;-73